Página principal
METAR-TAF:

METAR-TAF

Aeroportos :

Yakutsk, Rússia

latitude: 62-01N, longitude: 129-43E, altura: 103 m

Observação actual do tempo

O boletim foi feito há 50 minutos, às 22:00 UTC
Vento 2 kt de este
Temperatura -33°C
Humidade 74%
Pressão 1007 hPa
Visibilidade 10 km ou mais
neve fraca

METAR: UEEE 212200Z 10001MPS 9999 -SN NSC M33/M36 Q1007 R23L/490150 NOSIG RMK QFE747

Hora: 07:50 (22:50 UTC)

Previsão

O boletim foi feito há 2 horas e 50 minutos, às 20:00 UTC
Previsão válida de 21 às 21 UTC a 24 às 03 UTC
Vento 6 kt de sudeste
Visibilidade 10 km ou mais
Nuvens fragmentadasa uma altura de 2000 ft
Encobertoa uma altura de 7000 ft
neve fraca
Temporariamente
de 21 às 21 UTC a 22 às 09 UTC
Visibilidade: 2100 m
a uma altura de 600 ft
neve fraca

TAF: UEEE 212000Z 2121/2403 14003MPS 9999 -SN BKN020 OVC070 TEMPO 2121/2209 2100 -SN VV006

Observações e previsões do tempo de mais de 4000 aeroportos (mensagens METAR e TAF).

As estações disponíveis são os pontos amarelos e vermelhos sobre o mapa.

Mova o rato sobre o mapa para ver o nome da estação.

Depois clique no ponto para visualizar as observações e previsões meteorológicas.

Para alterar o mapa : clique nos botões verdes com uma cruz preta para aumentar o zoom; no botão verde com uma pitada de zoom; ou nas setas verdes para mapas adjacentes.


METAR-TAF: